Terminal Aerodrome Forecast
Issued by NWS

Home | Current Version | Previous Version | Text Only | Print | Product List | Glossary On
Versions: 1 2 3 4 5 6 7 8 9 10 11 12 13 14 15 16 17 18 19 20 21 22 23 24 25 26 27 28 29
000
FTAK31 PAFA 191735
TAFAGA
TAF
PAGA 191735Z 1918/2018 VRB04KT P6SM -RA OVC005
     FM200000 36006KT P6SM -RA OVC012
     FM200300 04004KT P6SM -RA OVC007
     FM200600 VRB03KT P6SM -RA OVC015
     FM201500 25003KT 5SM -SHRA BR OVC025=

USA.gov is the U.S. government's official web portal to all federal, state and local government web resources and services.